Avery, Oklahoma
Current Conditions -  °F | °C
As of 1:55 PM on Tuesday 21 Oct 2014 (Local Time) from KCUH Reporting Station
Scattered Clouds Scattered Clouds  
Wind Chill: 28°   Ceiling: Unl
Heat Index: 29°   Visibility: 10mi
Dew Point: 18°   Wind: 5mph
Humidity: 54%   Direction: 200°SSW
Pressure: 30.06"   Gusts: NA
Location:  35.9968°N, 96.7376°W
Report Text: KCUH 211855Z AUTO 20004KT 10SM SCT050 28/18 A3006 RMK AO2
Loading
Personal Weather Stations






























Interactive Weather Map
Tropical Storm Tracking
New forecast layout! Learn more

10-Day Weather Forecast

Advertisements
Track Severe Weather on mobile